sensor_id;sensor_type;location;lat;lon;timestamp;temperature;humidity
36924;DHT22;22841;50.252;18.688;2022-12-07T00:01:07;1.70;99.90
36924;DHT22;22841;50.252;18.688;2022-12-07T00:03:34;1.70;99.90
36924;DHT22;22841;50.252;18.688;2022-12-07T00:06:01;1.70;99.90
36924;DHT22;22841;50.252;18.688;2022-12-07T00:08:28;1.80;99.90
36924;DHT22;22841;50.252;18.688;2022-12-07T00:10:54;1.80;99.90
36924;DHT22;22841;50.252;18.688;2022-12-07T00:13:20;1.80;99.90
36924;DHT22;22841;50.252;18.688;2022-12-07T00:15:47;1.80;99.90
36924;DHT22;22841;50.252;18.688;2022-12-07T00:18:13;1.80;99.90
36924;DHT22;22841;50.252;18.688;2022-12-07T00:20:39;1.80;99.90
36924;DHT22;22841;50.252;18.688;2022-12-07T00:23:05;1.80;99.90
36924;DHT22;22841;50.252;18.688;2022-12-07T00:25:31;1.80;99.90
36924;DHT22;22841;50.252;18.688;2022-12-07T00:27:57;1.80;99.90
36924;DHT22;22841;50.252;18.688;2022-12-07T00:30:23;1.80;99.90
36924;DHT22;22841;50.252;18.688;2022-12-07T00:32:50;1.90;99.90
36924;DHT22;22841;50.252;18.688;2022-12-07T00:35:16;1.90;99.90
36924;DHT22;22841;50.252;18.688;2022-12-07T00:37:42;1.90;99.90
36924;DHT22;22841;50.252;18.688;2022-12-07T00:40:08;1.80;99.90
36924;DHT22;22841;50.252;18.688;2022-12-07T00:42:35;1.80;99.90
36924;DHT22;22841;50.252;18.688;2022-12-07T00:45:01;1.80;99.90
36924;DHT22;22841;50.252;18.688;2022-12-07T00:47:27;1.70;99.90
36924;DHT22;22841;50.252;18.688;2022-12-07T00:49:53;1.80;99.90
36924;DHT22;22841;50.252;18.688;2022-12-07T00:52:19;1.80;99.90
36924;DHT22;22841;50.252;18.688;2022-12-07T00:54:45;1.80;99.90
36924;DHT22;22841;50.252;18.688;2022-12-07T00:57:11;1.80;99.90
36924;DHT22;22841;50.252;18.688;2022-12-07T00:59:37;1.80;99.90
36924;DHT22;22841;50.252;18.688;2022-12-07T01:02:04;1.70;99.90
36924;DHT22;22841;50.252;18.688;2022-12-07T01:04:30;1.80;99.90
36924;DHT22;22841;50.252;18.688;2022-12-07T01:06:56;1.80;99.90
36924;DHT22;22841;50.252;18.688;2022-12-07T01:09:22;1.80;99.90
36924;DHT22;22841;50.252;18.688;2022-12-07T01:11:48;1.80;99.90
36924;DHT22;22841;50.252;18.688;2022-12-07T01:14:14;1.80;99.90
36924;DHT22;22841;50.252;18.688;2022-12-07T01:16:40;1.80;99.90
36924;DHT22;22841;50.252;18.688;2022-12-07T01:19:06;1.80;99.90
36924;DHT22;22841;50.252;18.688;2022-12-07T01:21:34;1.80;99.90
36924;DHT22;22841;50.252;18.688;2022-12-07T01:24:06;1.80;99.90
36924;DHT22;22841;50.252;18.688;2022-12-07T01:26:33;1.80;99.90
36924;DHT22;22841;50.252;18.688;2022-12-07T01:29:00;1.80;99.90
36924;DHT22;22841;50.252;18.688;2022-12-07T01:31:27;1.80;99.90
36924;DHT22;22841;50.252;18.688;2022-12-07T01:33:57;1.80;99.90
36924;DHT22;22841;50.252;18.688;2022-12-07T01:46:55;1.80;99.90
36924;DHT22;22841;50.252;18.688;2022-12-07T02:33:37;1.70;99.90
36924;DHT22;22841;50.252;18.688;2022-12-07T02:36:12;1.60;99.90
36924;DHT22;22841;50.252;18.688;2022-12-07T02:41:20;1.70;99.90
36924;DHT22;22841;50.252;18.688;2022-12-07T02:43:53;1.60;99.90
36924;DHT22;22841;50.252;18.688;2022-12-07T02:46:26;1.70;99.90
36924;DHT22;22841;50.252;18.688;2022-12-07T02:48:54;1.70;99.90
36924;DHT22;22841;50.252;18.688;2022-12-07T02:51:22;1.70;99.90
36924;DHT22;22841;50.252;18.688;2022-12-07T02:53:48;1.60;99.90
36924;DHT22;22841;50.252;18.688;2022-12-07T03:04:45;1.70;99.90
36924;DHT22;22841;50.252;18.688;2022-12-07T03:07:33;1.70;99.90
36924;DHT22;22841;50.252;18.688;2022-12-07T03:10:34;1.60;99.90
36924;DHT22;22841;50.252;18.688;2022-12-07T03:13:07;1.60;99.90
36924;DHT22;22841;50.252;18.688;2022-12-07T05:54:29;1.50;99.90
36924;DHT22;22841;50.252;18.688;2022-12-07T05:56:55;1.40;99.90
36924;DHT22;22841;50.252;18.688;2022-12-07T05:59:22;1.40;99.90
36924;DHT22;22841;50.252;18.688;2022-12-07T06:01:51;1.40;99.90
36924;DHT22;22841;50.252;18.688;2022-12-07T06:04:18;1.30;99.90
36924;DHT22;22841;50.252;18.688;2022-12-07T06:06:46;1.30;99.90
36924;DHT22;22841;50.252;18.688;2022-12-07T06:09:13;1.20;99.90
36924;DHT22;22841;50.252;18.688;2022-12-07T06:11:39;1.20;99.90
36924;DHT22;22841;50.252;18.688;2022-12-07T06:14:24;1.20;99.90
36924;DHT22;22841;50.252;18.688;2022-12-07T06:16:50;1.30;99.90
36924;DHT22;22841;50.252;18.688;2022-12-07T06:19:17;1.30;99.90
36924;DHT22;22841;50.252;18.688;2022-12-07T06:21:43;1.30;99.90
36924;DHT22;22841;50.252;18.688;2022-12-07T06:24:11;1.30;99.90
36924;DHT22;22841;50.252;18.688;2022-12-07T06:26:38;1.20;99.90
36924;DHT22;22841;50.252;18.688;2022-12-07T06:29:04;1.30;99.90
36924;DHT22;22841;50.252;18.688;2022-12-07T06:31:30;1.30;99.90
36924;DHT22;22841;50.252;18.688;2022-12-07T06:34:01;1.30;99.90
36924;DHT22;22841;50.252;18.688;2022-12-07T06:36:27;1.30;99.90
36924;DHT22;22841;50.252;18.688;2022-12-07T06:38:53;1.30;99.90
36924;DHT22;22841;50.252;18.688;2022-12-07T06:41:20;1.30;99.90
36924;DHT22;22841;50.252;18.688;2022-12-07T06:43:46;1.30;99.90
36924;DHT22;22841;50.252;18.688;2022-12-07T06:46:13;1.30;99.90
36924;DHT22;22841;50.252;18.688;2022-12-07T06:48:40;1.30;99.90
36924;DHT22;22841;50.252;18.688;2022-12-07T06:51:06;1.30;99.90
36924;DHT22;22841;50.252;18.688;2022-12-07T06:53:33;1.30;99.90
36924;DHT22;22841;50.252;18.688;2022-12-07T06:55:59;1.30;99.90
36924;DHT22;22841;50.252;18.688;2022-12-07T06:58:25;1.30;99.90
36924;DHT22;22841;50.252;18.688;2022-12-07T07:00:52;1.30;99.90
36924;DHT22;22841;50.252;18.688;2022-12-07T07:03:18;1.30;99.90
36924;DHT22;22841;50.252;18.688;2022-12-07T07:05:44;1.30;99.90
36924;DHT22;22841;50.252;18.688;2022-12-07T07:08:11;1.30;99.90
36924;DHT22;22841;50.252;18.688;2022-12-07T07:10:38;1.30;99.90
36924;DHT22;22841;50.252;18.688;2022-12-07T07:13:05;1.30;99.90
36924;DHT22;22841;50.252;18.688;2022-12-07T07:15:32;1.40;99.90
36924;DHT22;22841;50.252;18.688;2022-12-07T07:17:59;1.40;99.90
36924;DHT22;22841;50.252;18.688;2022-12-07T07:20:26;1.40;99.90
36924;DHT22;22841;50.252;18.688;2022-12-07T07:23:01;1.40;99.90
36924;DHT22;22841;50.252;18.688;2022-12-07T07:25:28;1.40;99.90
36924;DHT22;22841;50.252;18.688;2022-12-07T07:27:54;1.30;99.90
36924;DHT22;22841;50.252;18.688;2022-12-07T07:30:21;1.30;99.90
36924;DHT22;22841;50.252;18.688;2022-12-07T07:32:47;1.40;99.90
36924;DHT22;22841;50.252;18.688;2022-12-07T07:35:13;1.40;99.90
36924;DHT22;22841;50.252;18.688;2022-12-07T07:37:40;1.40;99.90
36924;DHT22;22841;50.252;18.688;2022-12-07T07:40:08;1.50;99.90
36924;DHT22;22841;50.252;18.688;2022-12-07T07:42:34;1.50;99.90
36924;DHT22;22841;50.252;18.688;2022-12-07T07:45:00;1.50;99.90
36924;DHT22;22841;50.252;18.688;2022-12-07T07:47:27;1.50;99.90
36924;DHT22;22841;50.252;18.688;2022-12-07T07:49:57;1.50;99.90
36924;DHT22;22841;50.252;18.688;2022-12-07T07:52:23;1.50;99.90
36924;DHT22;22841;50.252;18.688;2022-12-07T07:54:49;1.60;99.90
36924;DHT22;22841;50.252;18.688;2022-12-07T07:59:51;1.60;99.90
36924;DHT22;22841;50.252;18.688;2022-12-07T08:02:19;1.70;99.90
36924;DHT22;22841;50.252;18.688;2022-12-07T08:07:21;1.70;99.90
36924;DHT22;22841;50.252;18.688;2022-12-07T08:15:01;1.70;99.90
36924;DHT22;22841;50.252;18.688;2022-12-07T08:17:27;1.70;99.90
36924;DHT22;22841;50.252;18.688;2022-12-07T08:25:05;1.60;99.90
36924;DHT22;22841;50.252;18.688;2022-12-07T08:30:08;1.60;99.90
36924;DHT22;22841;50.252;18.688;2022-12-07T09:29:44;2.20;99.90
36924;DHT22;22841;50.252;18.688;2022-12-07T09:47:45;2.40;99.90
36924;DHT22;22841;50.252;18.688;2022-12-07T13:58:42;3.10;99.90
36924;DHT22;22841;50.252;18.688;2022-12-07T14:01:08;3.10;99.90
36924;DHT22;22841;50.252;18.688;2022-12-07T14:03:44;3.20;99.90
36924;DHT22;22841;50.252;18.688;2022-12-07T14:06:17;3.10;99.90
36924;DHT22;22841;50.252;18.688;2022-12-07T14:12:19;3.10;99.90
36924;DHT22;22841;50.252;18.688;2022-12-07T14:14:49;3.10;99.90
36924;DHT22;22841;50.252;18.688;2022-12-07T14:17:18;3.00;99.90
36924;DHT22;22841;50.252;18.688;2022-12-07T14:26:29;3.00;99.90
36924;DHT22;22841;50.252;18.688;2022-12-07T14:32:22;3.00;99.90
36924;DHT22;22841;50.252;18.688;2022-12-07T14:38:22;3.00;99.90
36924;DHT22;22841;50.252;18.688;2022-12-07T14:44:12;3.00;99.90
36924;DHT22;22841;50.252;18.688;2022-12-07T14:46:39;3.00;99.90
36924;DHT22;22841;50.252;18.688;2022-12-07T14:49:05;3.00;99.90
36924;DHT22;22841;50.252;18.688;2022-12-07T14:51:31;3.00;99.90
36924;DHT22;22841;50.252;18.688;2022-12-07T14:53:58;2.90;99.90
36924;DHT22;22841;50.252;18.688;2022-12-07T14:56:25;3.00;99.90
36924;DHT22;22841;50.252;18.688;2022-12-07T15:35:25;2.80;99.90
36924;DHT22;22841;50.252;18.688;2022-12-07T15:37:53;2.80;99.90
36924;DHT22;22841;50.252;18.688;2022-12-07T15:40:19;2.80;99.90
36924;DHT22;22841;50.252;18.688;2022-12-07T15:42:45;2.70;99.90
36924;DHT22;22841;50.252;18.688;2022-12-07T15:45:11;2.70;99.90
36924;DHT22;22841;50.252;18.688;2022-12-07T15:47:41;2.70;99.90
36924;DHT22;22841;50.252;18.688;2022-12-07T15:50:11;2.70;99.90
36924;DHT22;22841;50.252;18.688;2022-12-07T15:56:06;2.60;99.90
36924;DHT22;22841;50.252;18.688;2022-12-07T16:01:55;2.50;99.90
36924;DHT22;22841;50.252;18.688;2022-12-07T16:07:43;2.50;99.90
36924;DHT22;22841;50.252;18.688;2022-12-07T16:10:12;2.50;99.90
36924;DHT22;22841;50.252;18.688;2022-12-07T16:12:38;2.50;99.90
36924;DHT22;22841;50.252;18.688;2022-12-07T16:15:05;2.50;99.90
36924;DHT22;22841;50.252;18.688;2022-12-07T16:17:31;2.40;99.90
36924;DHT22;22841;50.252;18.688;2022-12-07T16:19:58;2.40;99.90
36924;DHT22;22841;50.252;18.688;2022-12-07T16:22:24;2.40;99.90
36924;DHT22;22841;50.252;18.688;2022-12-07T16:24:50;2.40;99.90
36924;DHT22;22841;50.252;18.688;2022-12-07T16:27:16;2.40;99.90
36924;DHT22;22841;50.252;18.688;2022-12-07T16:29:43;2.30;99.90
36924;DHT22;22841;50.252;18.688;2022-12-07T16:32:09;2.30;99.90
36924;DHT22;22841;50.252;18.688;2022-12-07T17:30:39;2.50;99.90
36924;DHT22;22841;50.252;18.688;2022-12-07T17:33:05;2.50;99.90
36924;DHT22;22841;50.252;18.688;2022-12-07T17:35:31;2.50;99.90
36924;DHT22;22841;50.252;18.688;2022-12-07T17:37:57;2.50;99.90
36924;DHT22;22841;50.252;18.688;2022-12-07T17:40:23;2.50;99.90
36924;DHT22;22841;50.252;18.688;2022-12-07T17:42:49;2.50;99.90
36924;DHT22;22841;50.252;18.688;2022-12-07T17:45:16;2.40;99.90
36924;DHT22;22841;50.252;18.688;2022-12-07T17:47:42;2.40;99.90
36924;DHT22;22841;50.252;18.688;2022-12-07T17:50:09;2.40;99.90
36924;DHT22;22841;50.252;18.688;2022-12-07T17:52:39;2.40;99.90
36924;DHT22;22841;50.252;18.688;2022-12-07T17:55:24;2.40;99.90
36924;DHT22;22841;50.252;18.688;2022-12-07T17:57:50;2.40;99.90
36924;DHT22;22841;50.252;18.688;2022-12-07T18:00:18;2.50;99.90
36924;DHT22;22841;50.252;18.688;2022-12-07T18:02:44;2.40;99.90
36924;DHT22;22841;50.252;18.688;2022-12-07T18:05:10;2.40;99.90
36924;DHT22;22841;50.252;18.688;2022-12-07T18:07:36;2.40;99.90
36924;DHT22;22841;50.252;18.688;2022-12-07T18:10:03;2.40;99.90
36924;DHT22;22841;50.252;18.688;2022-12-07T18:12:32;2.30;99.90
36924;DHT22;22841;50.252;18.688;2022-12-07T18:14:58;2.20;99.90
36924;DHT22;22841;50.252;18.688;2022-12-07T18:17:24;2.20;99.90
36924;DHT22;22841;50.252;18.688;2022-12-07T18:19:55;2.20;99.90
36924;DHT22;22841;50.252;18.688;2022-12-07T18:22:21;2.10;99.90
36924;DHT22;22841;50.252;18.688;2022-12-07T18:24:48;2.20;99.90
36924;DHT22;22841;50.252;18.688;2022-12-07T18:27:14;2.10;99.90
36924;DHT22;22841;50.252;18.688;2022-12-07T18:29:40;2.20;99.90
36924;DHT22;22841;50.252;18.688;2022-12-07T18:32:06;2.10;99.90
36924;DHT22;22841;50.252;18.688;2022-12-07T18:34:32;2.10;99.90
36924;DHT22;22841;50.252;18.688;2022-12-07T18:36:58;2.20;99.90
36924;DHT22;22841;50.252;18.688;2022-12-07T18:39:24;2.20;99.90
36924;DHT22;22841;50.252;18.688;2022-12-07T18:41:50;2.10;99.90
36924;DHT22;22841;50.252;18.688;2022-12-07T18:44:16;2.10;99.90
36924;DHT22;22841;50.252;18.688;2022-12-07T18:46:43;2.10;99.90
36924;DHT22;22841;50.252;18.688;2022-12-07T18:49:13;2.10;99.90
36924;DHT22;22841;50.252;18.688;2022-12-07T18:51:39;2.10;99.90
36924;DHT22;22841;50.252;18.688;2022-12-07T18:54:06;2.10;99.90
36924;DHT22;22841;50.252;18.688;2022-12-07T18:56:32;2.10;99.90
36924;DHT22;22841;50.252;18.688;2022-12-07T18:59:03;2.20;99.90
36924;DHT22;22841;50.252;18.688;2022-12-07T19:01:52;2.20;99.90
36924;DHT22;22841;50.252;18.688;2022-12-07T19:04:19;2.30;99.90
36924;DHT22;22841;50.252;18.688;2022-12-07T19:06:46;2.20;99.90
36924;DHT22;22841;50.252;18.688;2022-12-07T19:09:13;2.30;99.90
36924;DHT22;22841;50.252;18.688;2022-12-07T19:11:40;2.40;99.90
36924;DHT22;22841;50.252;18.688;2022-12-07T19:14:23;2.40;99.90
36924;DHT22;22841;50.252;18.688;2022-12-07T19:16:52;2.40;99.90
36924;DHT22;22841;50.252;18.688;2022-12-07T19:19:21;2.40;99.90
36924;DHT22;22841;50.252;18.688;2022-12-07T19:21:48;2.50;99.90
36924;DHT22;22841;50.252;18.688;2022-12-07T19:24:14;2.40;99.90
36924;DHT22;22841;50.252;18.688;2022-12-07T19:26:42;2.40;99.90
36924;DHT22;22841;50.252;18.688;2022-12-07T19:29:09;2.50;99.90
36924;DHT22;22841;50.252;18.688;2022-12-07T19:31:35;2.50;99.90
36924;DHT22;22841;50.252;18.688;2022-12-07T19:34:38;2.50;99.90
36924;DHT22;22841;50.252;18.688;2022-12-07T19:37:05;2.40;99.90
36924;DHT22;22841;50.252;18.688;2022-12-07T19:39:31;2.40;99.90
36924;DHT22;22841;50.252;18.688;2022-12-07T19:41:57;2.30;99.90
36924;DHT22;22841;50.252;18.688;2022-12-07T19:44:26;2.20;99.90
36924;DHT22;22841;50.252;18.688;2022-12-07T19:46:54;2.20;99.90
36924;DHT22;22841;50.252;18.688;2022-12-07T19:49:27;2.10;99.90
36924;DHT22;22841;50.252;18.688;2022-12-07T19:51:56;2.10;99.90
36924;DHT22;22841;50.252;18.688;2022-12-07T19:54:42;2.10;99.90
36924;DHT22;22841;50.252;18.688;2022-12-07T19:57:08;2.00;99.90
36924;DHT22;22841;50.252;18.688;2022-12-07T19:59:39;2.00;99.90
36924;DHT22;22841;50.252;18.688;2022-12-07T20:02:05;1.90;99.90
36924;DHT22;22841;50.252;18.688;2022-12-07T20:04:32;1.90;99.90
36924;DHT22;22841;50.252;18.688;2022-12-07T20:07:00;1.80;99.90
36924;DHT22;22841;50.252;18.688;2022-12-07T20:09:48;1.80;99.90
36924;DHT22;22841;50.252;18.688;2022-12-07T20:12:14;1.80;99.90
36924;DHT22;22841;50.252;18.688;2022-12-07T20:15:03;1.80;99.90
36924;DHT22;22841;50.252;18.688;2022-12-07T20:17:29;1.80;99.90
36924;DHT22;22841;50.252;18.688;2022-12-07T20:19:55;1.80;99.90
36924;DHT22;22841;50.252;18.688;2022-12-07T20:22:21;1.80;99.90
36924;DHT22;22841;50.252;18.688;2022-12-07T20:24:47;1.80;99.90
36924;DHT22;22841;50.252;18.688;2022-12-07T20:27:13;1.80;99.90
36924;DHT22;22841;50.252;18.688;2022-12-07T20:29:40;1.80;99.90
36924;DHT22;22841;50.252;18.688;2022-12-07T20:32:09;1.90;99.90
36924;DHT22;22841;50.252;18.688;2022-12-07T21:39:34;1.90;99.90
36924;DHT22;22841;50.252;18.688;2022-12-07T21:42:14;1.90;99.90
36924;DHT22;22841;50.252;18.688;2022-12-07T21:44:40;1.90;99.90
36924;DHT22;22841;50.252;18.688;2022-12-07T21:47:40;1.90;99.90
36924;DHT22;22841;50.252;18.688;2022-12-07T21:50:07;1.90;99.90
36924;DHT22;22841;50.252;18.688;2022-12-07T21:52:33;1.90;99.90
36924;DHT22;22841;50.252;18.688;2022-12-07T21:55:06;2.00;99.90
36924;DHT22;22841;50.252;18.688;2022-12-07T21:57:32;1.90;99.90
36924;DHT22;22841;50.252;18.688;2022-12-07T21:59:58;1.90;99.90
36924;DHT22;22841;50.252;18.688;2022-12-07T22:02:24;2.00;99.90
36924;DHT22;22841;50.252;18.688;2022-12-07T22:04:50;2.00;99.90
36924;DHT22;22841;50.252;18.688;2022-12-07T22:07:16;2.00;99.90
36924;DHT22;22841;50.252;18.688;2022-12-07T22:10:42;2.00;99.90
36924;DHT22;22841;50.252;18.688;2022-12-07T22:13:42;2.00;99.90
36924;DHT22;22841;50.252;18.688;2022-12-07T22:16:35;1.90;99.90
36924;DHT22;22841;50.252;18.688;2022-12-07T22:19:02;1.90;99.90
36924;DHT22;22841;50.252;18.688;2022-12-07T22:28:25;1.80;99.90
36924;DHT22;22841;50.252;18.688;2022-12-07T22:30:51;1.80;99.90
36924;DHT22;22841;50.252;18.688;2022-12-07T23:05:08;1.70;99.90
36924;DHT22;22841;50.252;18.688;2022-12-07T23:07:34;1.80;99.90
36924;DHT22;22841;50.252;18.688;2022-12-07T23:10:00;1.80;99.90
36924;DHT22;22841;50.252;18.688;2022-12-07T23:12:26;1.80;99.90
36924;DHT22;22841;50.252;18.688;2022-12-07T23:15:11;1.80;99.90
36924;DHT22;22841;50.252;18.688;2022-12-07T23:18:09;1.80;99.90
36924;DHT22;22841;50.252;18.688;2022-12-07T23:21:08;1.90;99.90
36924;DHT22;22841;50.252;18.688;2022-12-07T23:26:58;2.00;99.90
36924;DHT22;22841;50.252;18.688;2022-12-07T23:29:24;2.00;99.90
36924;DHT22;22841;50.252;18.688;2022-12-07T23:31:50;2.00;99.90
36924;DHT22;22841;50.252;18.688;2022-12-07T23:34:16;2.00;99.90
36924;DHT22;22841;50.252;18.688;2022-12-07T23:36:42;2.00;99.90
36924;DHT22;22841;50.252;18.688;2022-12-07T23:39:09;2.00;99.90
36924;DHT22;22841;50.252;18.688;2022-12-07T23:41:36;2.00;99.90
36924;DHT22;22841;50.252;18.688;2022-12-07T23:44:02;2.00;99.90
36924;DHT22;22841;50.252;18.688;2022-12-07T23:46:32;1.90;99.90
36924;DHT22;22841;50.252;18.688;2022-12-07T23:49:00;1.90;99.90
36924;DHT22;22841;50.252;18.688;2022-12-07T23:51:27;1.90;99.90
36924;DHT22;22841;50.252;18.688;2022-12-07T23:53:58;1.90;99.90
36924;DHT22;22841;50.252;18.688;2022-12-07T23:59:50;1.90;99.90
